createdAt,value
2018-09-18T00:00:22.924Z,3.40
2018-09-18T00:01:22.782Z,3.40
2018-09-18T00:02:22.803Z,3.40
2018-09-18T00:03:22.627Z,3.80
2018-09-18T00:04:22.627Z,3.40
2018-09-18T00:05:22.492Z,3.30
2018-09-18T00:06:22.524Z,3.60
2018-09-18T00:07:22.321Z,3.40
2018-09-18T00:08:22.333Z,3.50
2018-09-18T00:09:22.156Z,3.40
2018-09-18T00:10:22.178Z,3.60
2018-09-18T00:11:21.984Z,3.30
2018-09-18T00:12:21.942Z,3.80
2018-09-18T00:13:21.850Z,3.70
2018-09-18T00:14:21.757Z,3.70
2018-09-18T00:15:21.688Z,3.60
2018-09-18T00:16:21.756Z,3.40
2018-09-18T00:17:21.509Z,3.70
2018-09-18T00:18:21.471Z,3.70
2018-09-18T00:19:21.365Z,3.70
2018-09-18T00:20:21.316Z,3.60
2018-09-18T00:21:21.214Z,3.40
2018-09-18T00:22:21.198Z,3.20
2018-09-18T00:23:21.029Z,3.40
2018-09-18T00:24:21.003Z,3.10
2018-09-18T00:25:20.883Z,4.10
2018-09-18T00:26:21.944Z,3.50
2018-09-18T00:27:20.712Z,3.70
2018-09-18T00:28:20.635Z,3.50
2018-09-18T00:29:20.556Z,3.60
2018-09-18T00:30:20.479Z,3.80
2018-09-18T00:31:20.406Z,3.40
2018-09-18T00:34:02.558Z,3.60
2018-09-18T00:35:02.538Z,3.60
2018-09-18T00:36:02.410Z,3.40
2018-09-18T00:37:03.406Z,3.50
2018-09-18T00:38:02.244Z,3.80
2018-09-18T00:40:44.078Z,3.80
2018-09-18T00:41:44.092Z,3.80
2018-09-18T00:42:43.901Z,3.90
2018-09-18T00:43:43.874Z,3.60
2018-09-18T00:44:43.751Z,3.50
2018-09-18T00:45:43.775Z,3.80
2018-09-18T00:46:43.615Z,3.50
2018-09-18T00:47:43.582Z,3.60
2018-09-18T00:48:43.426Z,3.80
2018-09-18T00:49:43.392Z,4.00
2018-09-18T00:50:43.263Z,3.60
2018-09-18T00:51:43.237Z,3.80
2018-09-18T00:52:43.099Z,3.70
2018-09-18T00:53:43.111Z,3.60
2018-09-18T00:54:42.963Z,4.00
2018-09-18T00:55:42.919Z,3.90
2018-09-18T00:56:42.802Z,3.70
2018-09-18T00:57:42.778Z,3.90
2018-09-18T00:58:42.631Z,3.80
2018-09-18T00:59:42.637Z,4.30
2018-09-18T01:00:42.466Z,3.90
2018-09-18T01:09:06.002Z,3.90
2018-09-18T01:10:05.955Z,3.90
2018-09-18T01:11:05.849Z,3.90
2018-09-18T01:12:05.812Z,4.20
2018-09-18T01:13:05.647Z,4.00
2018-09-18T01:14:05.668Z,4.10
2018-09-18T01:15:05.481Z,4.00
2018-09-18T01:16:05.478Z,4.20
2018-09-18T01:17:05.321Z,4.20
2018-09-18T01:18:05.320Z,4.50
2018-09-18T01:19:05.176Z,4.40
2018-09-18T01:21:47.068Z,4.00
2018-09-18T01:22:47.133Z,4.30
2018-09-18T01:23:46.919Z,4.30
2018-09-18T01:24:46.895Z,4.00
2018-09-18T01:25:46.785Z,4.10
2018-09-18T01:26:46.715Z,4.40
2018-09-18T01:27:46.618Z,4.00
2018-09-18T01:28:46.922Z,4.10
2018-09-18T01:29:46.426Z,4.30
2018-09-18T01:30:46.360Z,4.10
2018-09-18T01:31:46.286Z,4.10
2018-09-18T01:32:46.240Z,3.90
2018-09-18T01:33:46.139Z,4.00
2018-09-18T01:34:46.152Z,3.80
2018-09-18T01:35:45.953Z,3.80
2018-09-18T01:38:28.113Z,4.10
2018-09-18T01:39:28.082Z,4.00
2018-09-18T01:40:27.943Z,3.80
2018-09-18T01:41:27.972Z,4.10
2018-09-18T01:42:27.768Z,3.80
2018-09-18T01:43:27.923Z,4.10
2018-09-18T01:44:27.609Z,3.90
2018-09-18T01:45:27.589Z,3.70
2018-09-18T01:46:27.441Z,4.10
2018-09-18T01:47:27.489Z,3.80
2018-09-18T01:48:27.308Z,3.70
2018-09-18T01:49:27.205Z,4.10
2018-09-18T01:50:27.183Z,3.70
2018-09-18T01:53:09.098Z,3.80
2018-09-18T01:54:09.148Z,4.30
2018-09-18T01:55:08.927Z,3.90
2018-09-18T01:57:51.110Z,4.20
2018-09-18T01:58:51.173Z,4.60
2018-09-18T01:59:50.931Z,4.10
2018-09-18T02:00:51.036Z,4.00
2018-09-18T02:01:50.781Z,4.00
2018-09-18T02:02:50.744Z,3.90
2018-09-18T02:03:50.661Z,4.10
2018-09-18T02:04:50.679Z,4.00
2018-09-18T02:05:50.448Z,3.70
2018-09-18T02:06:50.485Z,4.00
2018-09-18T02:07:50.285Z,3.60
2018-09-18T02:08:50.313Z,3.80
2018-09-18T02:09:50.144Z,3.60
2018-09-18T02:10:50.189Z,4.30
2018-09-18T02:11:49.961Z,3.60
2018-09-18T02:12:49.989Z,3.80
2018-09-18T02:13:49.841Z,4.40
2018-09-18T02:14:49.833Z,3.70
2018-09-18T02:15:49.648Z,3.60
2018-09-18T02:16:49.608Z,4.00
2018-09-18T02:17:49.488Z,3.80
2018-09-18T02:18:49.530Z,3.90
2018-09-18T02:19:49.470Z,3.80
2018-09-18T02:20:49.326Z,3.80
2018-09-18T02:21:49.174Z,3.70
2018-09-18T02:22:49.214Z,4.00
2018-09-18T02:23:49.001Z,3.90
2018-09-18T02:24:49.086Z,4.30
2018-09-18T02:25:48.879Z,4.00
2018-09-18T02:26:48.845Z,3.60
2018-09-18T02:27:48.704Z,3.60
2018-09-18T02:28:48.616Z,4.10
2018-09-18T02:29:48.553Z,3.80
2018-09-18T02:30:48.591Z,3.70
2018-09-18T02:31:48.369Z,3.70
2018-09-18T02:32:48.385Z,3.60
2018-09-18T02:33:48.225Z,3.60
2018-09-18T02:34:48.232Z,4.10
2018-09-18T02:35:48.113Z,3.80
2018-09-18T02:38:30.105Z,3.60
2018-09-18T02:39:30.105Z,3.70
2018-09-18T02:40:29.969Z,3.70
2018-09-18T02:43:12.119Z,3.20
2018-09-18T02:45:54.162Z,3.90
2018-09-18T02:46:54.112Z,3.60
2018-09-18T02:47:53.947Z,3.40
2018-09-18T02:50:18.744Z,3.60
2018-09-18T02:51:18.519Z,3.60
2018-09-18T02:52:18.514Z,3.70
2018-09-18T02:53:18.358Z,3.30
2018-09-18T02:54:18.321Z,3.30
2018-09-18T02:55:18.263Z,3.80
2018-09-18T02:56:18.225Z,3.80
2018-09-18T02:57:18.058Z,3.90
2018-09-18T02:58:18.048Z,3.50
2018-09-18T02:59:17.878Z,3.80
2018-09-18T03:00:17.831Z,3.60
2018-09-18T03:01:17.855Z,3.80
2018-09-18T03:02:17.754Z,3.30
2018-09-18T03:06:52.223Z,3.60
2018-09-18T03:07:52.005Z,3.70
2018-09-18T03:08:51.993Z,3.30
2018-09-18T03:09:51.831Z,3.70
2018-09-18T03:10:51.834Z,3.80
2018-09-18T03:11:51.697Z,3.70
2018-09-18T03:12:51.714Z,3.40
2018-09-18T03:13:51.513Z,4.00
2018-09-18T03:14:51.529Z,3.50
2018-09-18T03:15:51.399Z,3.70
2018-09-18T03:18:33.610Z,3.60
2018-09-18T03:19:33.646Z,3.70
2018-09-18T03:20:33.446Z,3.90
2018-09-18T03:21:33.480Z,3.90
2018-09-18T03:22:33.289Z,3.70
2018-09-18T03:23:33.258Z,4.00
2018-09-18T03:24:33.126Z,3.90
2018-09-18T03:25:33.063Z,3.50
2018-09-18T03:26:32.985Z,3.60
2018-09-18T03:27:33.030Z,3.70
2018-09-18T03:28:32.807Z,3.40
2018-09-18T03:29:32.790Z,3.30
2018-09-18T03:30:32.692Z,3.60
2018-09-18T03:31:32.627Z,4.10
2018-09-18T03:32:32.555Z,3.60
2018-09-18T03:33:32.503Z,3.60
2018-09-18T03:34:32.342Z,3.70
2018-09-18T03:35:32.495Z,3.20
2018-09-18T03:36:32.194Z,3.70
2018-09-18T03:37:33.171Z,3.60
2018-09-18T03:39:56.615Z,3.50
2018-09-18T03:40:56.614Z,3.90
2018-09-18T03:41:56.473Z,3.50
2018-09-18T03:42:56.431Z,3.30
2018-09-18T03:43:56.289Z,3.70
2018-09-18T03:44:56.335Z,3.40
2018-09-18T03:45:56.140Z,3.40
2018-09-18T03:46:56.174Z,3.60
2018-09-18T03:47:55.993Z,3.30
2018-09-18T03:48:55.949Z,3.20
2018-09-18T03:49:55.819Z,3.00
2018-09-18T03:50:55.860Z,3.40
2018-09-18T03:51:55.664Z,3.40
2018-09-18T03:52:55.700Z,3.70
2018-09-18T03:53:55.489Z,3.30
2018-09-18T03:54:55.583Z,3.50
2018-09-18T03:55:55.346Z,3.10
2018-09-18T03:56:55.287Z,3.70
2018-09-18T03:57:55.207Z,3.70
2018-09-18T03:58:55.196Z,3.70
2018-09-18T03:59:55.012Z,3.60
2018-09-18T04:00:55.022Z,3.40
2018-09-18T04:01:54.850Z,3.40
2018-09-18T04:02:54.876Z,3.40
2018-09-18T04:03:54.695Z,3.40
2018-09-18T04:04:54.727Z,3.70
2018-09-18T04:05:54.566Z,3.60
2018-09-18T04:06:54.535Z,3.50
2018-09-18T04:07:54.406Z,3.60
2018-09-18T04:08:54.342Z,3.60
2018-09-18T04:09:54.224Z,3.70
2018-09-18T04:10:54.262Z,3.80
2018-09-18T04:11:54.065Z,3.30
2018-09-18T04:12:54.089Z,3.60
2018-09-18T04:13:53.885Z,3.70
2018-09-18T04:14:53.870Z,3.60
2018-09-18T04:15:53.736Z,3.50
2018-09-18T04:16:53.787Z,3.50
2018-09-18T04:17:53.798Z,5.00
2018-09-18T04:18:53.589Z,3.90
2018-09-18T04:19:53.425Z,7.40
2018-09-18T04:20:53.399Z,3.50
2018-09-18T04:21:53.254Z,3.60
2018-09-18T04:22:53.234Z,3.60
2018-09-18T04:23:53.098Z,3.60
2018-09-18T04:24:53.119Z,3.80
2018-09-18T04:25:52.942Z,3.30
2018-09-18T04:26:52.928Z,3.90
2018-09-18T04:27:52.891Z,3.60
2018-09-18T04:28:52.762Z,3.50
2018-09-18T04:29:52.616Z,3.50
2018-09-18T04:30:52.651Z,3.50
2018-09-18T04:31:52.454Z,3.60
2018-09-18T04:34:34.653Z,3.70
2018-09-18T04:35:43.567Z,3.30
2018-09-18T04:36:34.494Z,3.60
2018-09-18T04:37:34.469Z,3.40
2018-09-18T04:38:34.348Z,3.50
2018-09-18T04:39:34.236Z,3.60
2018-09-18T04:40:34.247Z,3.20
2018-09-18T04:41:34.086Z,3.60
2018-09-18T04:42:33.998Z,3.80
2018-09-18T04:43:33.980Z,3.50
2018-09-18T04:44:33.860Z,3.50
2018-09-18T04:45:33.758Z,3.10
2018-09-18T04:46:33.680Z,3.30
2018-09-18T04:47:33.609Z,3.40
2018-09-18T04:48:33.510Z,3.60
2018-09-18T04:49:33.457Z,3.10
2018-09-18T04:50:33.352Z,3.40
2018-09-18T04:53:15.655Z,3.40
2018-09-18T04:54:15.597Z,3.20
2018-09-18T04:55:15.481Z,3.40
2018-09-18T04:56:15.566Z,3.40
2018-09-18T04:57:15.319Z,3.10
2018-09-18T04:59:57.169Z,3.70
2018-09-18T05:00:57.083Z,3.60
2018-09-18T05:01:57.078Z,3.60
2018-09-18T05:02:56.896Z,3.60
2018-09-18T05:03:56.924Z,3.60
2018-09-18T05:04:56.764Z,3.30
2018-09-18T05:05:56.672Z,3.60
2018-09-18T05:06:56.771Z,3.40
2018-09-18T05:07:56.501Z,3.80
2018-09-18T05:08:56.437Z,3.50
2018-09-18T05:09:56.366Z,3.30
2018-09-18T05:10:56.397Z,3.40
2018-09-18T05:11:56.194Z,3.50
2018-09-18T05:14:38.177Z,3.60
2018-09-18T05:15:38.178Z,3.70
2018-09-18T05:16:37.982Z,3.50
2018-09-18T05:17:38.008Z,4.20
2018-09-18T05:18:37.821Z,3.50
2018-09-18T05:19:37.892Z,3.40
2018-09-18T05:20:37.694Z,3.50
2018-09-18T05:21:37.680Z,3.60
2018-09-18T05:22:37.496Z,3.40
2018-09-18T05:23:37.537Z,3.70
2018-09-18T05:24:37.335Z,3.60
2018-09-18T05:25:37.487Z,3.80
2018-09-18T05:26:37.195Z,3.60
2018-09-18T05:27:37.157Z,3.40
2018-09-18T05:28:37.029Z,4.10
2018-09-18T05:29:37.067Z,3.60
2018-09-18T05:30:36.880Z,4.20
2018-09-18T05:31:36.881Z,3.60
2018-09-18T05:32:36.694Z,3.50
2018-09-18T05:33:36.741Z,3.70
2018-09-18T05:34:36.555Z,4.40
2018-09-18T05:35:37.563Z,3.60
2018-09-18T05:36:36.378Z,4.00
2018-09-18T05:37:36.399Z,3.90
2018-09-18T05:38:36.220Z,3.70
2018-09-18T05:39:36.220Z,3.60
2018-09-18T05:40:36.090Z,3.60
2018-09-18T05:41:36.058Z,3.70
2018-09-18T05:42:35.909Z,4.00
2018-09-18T05:43:35.929Z,3.90
2018-09-18T05:44:35.760Z,3.70
2018-09-18T05:45:35.743Z,4.10
2018-09-18T05:46:35.750Z,3.90
2018-09-18T05:47:35.584Z,3.50
2018-09-18T05:48:35.427Z,3.80
2018-09-18T05:49:35.481Z,3.70
2018-09-18T05:50:35.258Z,3.50
2018-09-18T05:51:36.320Z,3.70
2018-09-18T05:52:35.111Z,3.60
2018-09-18T05:53:35.032Z,3.70
2018-09-18T05:54:34.951Z,3.70
2018-09-18T05:55:34.869Z,3.50
2018-09-18T05:56:34.807Z,3.60
2018-09-18T05:57:34.713Z,3.60
2018-09-18T05:58:34.617Z,3.30
2018-09-18T06:01:16.691Z,3.80
2018-09-18T06:02:16.595Z,3.60
2018-09-18T06:03:16.493Z,3.60
2018-09-18T06:04:16.421Z,3.70
2018-09-18T06:05:16.327Z,3.30
2018-09-18T06:06:16.268Z,3.80
2018-09-18T06:07:16.171Z,3.60
2018-09-18T06:08:16.098Z,3.80
2018-09-18T06:09:16.017Z,3.40
2018-09-18T06:11:58.184Z,3.60
2018-09-18T06:12:58.083Z,3.70
2018-09-18T06:13:57.999Z,3.50
2018-09-18T06:14:57.924Z,3.40
2018-09-18T06:15:57.844Z,3.50
2018-09-18T06:16:57.788Z,3.70
2018-09-18T06:17:57.686Z,3.70
2018-09-18T06:18:57.681Z,3.50
2018-09-18T06:19:57.516Z,4.00
2018-09-18T06:20:57.459Z,3.50
2018-09-18T06:21:57.378Z,3.50
2018-09-18T06:22:57.302Z,4.20
2018-09-18T06:23:57.209Z,3.40
2018-09-18T06:24:57.136Z,3.50
2018-09-18T06:25:57.036Z,3.90
2018-09-18T06:26:57.993Z,3.40
2018-09-18T06:27:56.887Z,3.90
2018-09-18T06:28:56.869Z,3.60
2018-09-18T06:29:56.732Z,3.60
2018-09-18T06:30:56.691Z,3.50
2018-09-18T06:31:56.561Z,3.50
2018-09-18T06:32:57.513Z,3.20
2018-09-18T06:33:56.435Z,3.60
2018-09-18T06:34:56.338Z,3.60
2018-09-18T06:35:56.242Z,3.30
2018-09-18T06:36:56.211Z,3.50
2018-09-18T06:37:56.122Z,3.50
2018-09-18T06:38:56.026Z,3.40
2018-09-18T06:39:55.948Z,3.40
2018-09-18T06:42:38.191Z,3.40
2018-09-18T06:45:20.214Z,3.30
2018-09-18T06:46:20.097Z,3.80
2018-09-18T06:47:20.011Z,3.40
2018-09-18T06:48:19.947Z,3.20
2018-09-18T06:49:19.846Z,3.50
2018-09-18T06:50:19.778Z,3.10
2018-09-18T06:51:19.682Z,3.30
2018-09-18T06:52:19.621Z,3.30
2018-09-18T06:53:19.546Z,3.30
2018-09-18T06:54:19.546Z,3.30
2018-09-18T06:55:19.370Z,3.60
2018-09-18T06:56:19.307Z,3.60
2018-09-18T06:57:19.219Z,3.20
2018-09-18T06:58:19.163Z,3.40
2018-09-18T06:59:19.067Z,3.50
2018-09-18T07:00:19.011Z,3.60
2018-09-18T07:01:18.909Z,3.50
2018-09-18T07:02:18.827Z,3.40
2018-09-18T07:03:18.753Z,3.90
2018-09-18T07:04:18.689Z,3.40
2018-09-18T07:05:18.624Z,3.50
2018-09-18T07:06:18.520Z,3.70
2018-09-18T07:07:18.428Z,3.40
2018-09-18T07:08:18.394Z,3.50
2018-09-18T07:09:18.299Z,3.60
2018-09-18T07:10:18.235Z,3.50
2018-09-18T07:11:18.235Z,3.30
2018-09-18T07:14:00.198Z,3.20
2018-09-18T07:16:42.197Z,3.70
2018-09-18T07:17:42.125Z,3.50
2018-09-18T07:18:42.052Z,3.60
2018-09-18T07:19:41.952Z,3.70
2018-09-18T07:20:41.866Z,3.70
2018-09-18T07:21:41.804Z,3.50
2018-09-18T07:22:41.713Z,3.60
2018-09-18T07:23:42.654Z,3.90
2018-09-18T07:24:41.662Z,3.60
2018-09-18T07:27:23.695Z,4.00
2018-09-18T07:28:23.605Z,3.70
2018-09-18T07:29:23.572Z,3.50
2018-09-18T07:45:03.811Z,3.70
2018-09-18T07:46:03.713Z,3.80
2018-09-18T07:47:03.685Z,3.90
2018-09-18T07:48:03.577Z,3.90
2018-09-18T07:49:03.497Z,3.70
2018-09-18T07:50:03.449Z,3.60
2018-09-18T07:51:03.348Z,4.00
2018-09-18T07:52:04.309Z,3.80
2018-09-18T07:53:03.274Z,3.50
2018-09-18T07:54:03.129Z,4.20
2018-09-18T07:55:03.048Z,4.20
2018-09-18T07:56:03.133Z,3.80
2018-09-18T07:57:02.917Z,3.90
2018-09-18T07:58:02.835Z,4.00
2018-09-18T07:59:02.753Z,3.80
2018-09-18T08:01:44.710Z,3.50
2018-09-18T08:02:44.619Z,3.70
2018-09-18T08:03:44.554Z,3.70
2018-09-18T08:04:44.494Z,3.40
2018-09-18T08:05:44.431Z,4.20
2018-09-18T08:06:44.370Z,3.60
2018-09-18T08:07:44.259Z,3.80
2018-09-18T08:08:44.200Z,3.70
2018-09-18T08:09:44.112Z,3.90
2018-09-18T08:10:44.063Z,3.60
2018-09-18T08:11:43.953Z,3.70
2018-09-18T08:12:43.926Z,3.60
2018-09-18T08:13:43.832Z,4.10
2018-09-18T08:16:25.704Z,3.90
2018-09-18T08:17:26.649Z,3.80
2018-09-18T08:18:25.560Z,3.80
2018-09-18T08:21:07.700Z,3.70
2018-09-18T08:22:07.774Z,3.40
2018-09-18T08:23:07.565Z,5.10
2018-09-18T08:24:07.487Z,3.90
2018-09-18T08:25:07.438Z,4.00
2018-09-18T08:26:07.344Z,3.90
2018-09-18T08:27:07.287Z,3.70
2018-09-18T08:29:49.202Z,4.10
2018-09-18T08:30:49.136Z,4.00
2018-09-18T08:31:49.083Z,4.00
2018-09-18T08:32:49.123Z,3.90
2018-09-18T08:33:48.918Z,3.70
2018-09-18T08:36:31.206Z,3.90
2018-09-18T08:37:31.158Z,3.80
2018-09-18T08:38:31.076Z,3.60
2018-09-18T08:41:13.218Z,3.70
2018-09-18T08:42:13.181Z,3.90
2018-09-18T08:43:13.068Z,3.60
2018-09-18T08:44:13.023Z,3.70
2018-09-18T08:45:12.941Z,3.60
2018-09-18T08:47:55.282Z,3.80
2018-09-18T08:48:55.173Z,4.00
2018-09-18T08:49:55.073Z,3.90
2018-09-18T08:50:55.015Z,3.80
2018-09-18T08:51:54.926Z,3.50
2018-09-18T08:52:54.896Z,3.60
2018-09-18T08:53:54.799Z,3.50
2018-09-18T08:54:54.759Z,4.30
2018-09-18T08:55:54.656Z,3.60
2018-09-18T08:56:54.592Z,4.10
2018-09-18T08:57:54.563Z,3.90
2018-09-18T08:58:54.460Z,4.30
2018-09-18T08:59:54.376Z,4.20
2018-09-18T09:00:54.310Z,4.20
2018-09-18T09:01:54.234Z,4.00
2018-09-18T09:02:54.211Z,3.70
2018-09-18T09:03:54.095Z,4.10
2018-09-18T09:04:54.024Z,3.90
2018-09-18T09:05:54.015Z,3.90
2018-09-18T09:06:53.924Z,4.10
2018-09-18T09:07:53.985Z,3.60
2018-09-18T09:10:35.808Z,4.00
2018-09-18T09:11:35.662Z,4.30
2018-09-18T09:12:35.577Z,3.90
2018-09-18T09:13:36.544Z,3.90
2018-09-18T09:14:35.531Z,3.90
2018-09-18T09:15:35.457Z,4.20
2018-09-18T09:16:35.306Z,3.90
2018-09-18T09:19:17.242Z,3.70
2018-09-18T09:20:17.164Z,3.60
2018-09-18T09:21:17.197Z,3.70
2018-09-18T09:23:59.266Z,3.80
2018-09-18T09:24:59.171Z,3.90
2018-09-18T09:25:59.116Z,3.70
2018-09-18T09:26:59.086Z,4.10
2018-09-18T09:27:58.990Z,3.90
2018-09-18T09:28:58.946Z,3.90
2018-09-18T09:29:58.909Z,4.00
2018-09-18T09:30:58.781Z,4.10
2018-09-18T09:31:58.690Z,4.10
2018-09-18T09:32:58.648Z,4.20
2018-09-18T09:33:58.590Z,4.70
2018-09-18T09:34:58.494Z,3.70
2018-09-18T09:35:58.428Z,4.10
2018-09-18T09:38:40.725Z,3.80
2018-09-18T09:39:40.684Z,3.80
2018-09-18T09:40:40.600Z,4.00
2018-09-18T09:41:40.529Z,3.70
2018-09-18T09:42:40.458Z,3.70
2018-09-18T09:43:40.414Z,3.50
2018-09-18T09:44:40.379Z,3.90
2018-09-18T09:45:40.300Z,3.90
2018-09-18T09:46:40.230Z,3.80
2018-09-18T09:47:40.164Z,4.20
2018-09-18T09:48:40.059Z,3.60
2018-09-18T09:49:40.024Z,3.60
2018-09-18T09:50:39.925Z,3.70
2018-09-18T09:51:39.935Z,3.60
2018-09-18T09:52:39.800Z,3.70
2018-09-18T09:53:39.743Z,3.70
2018-09-18T09:54:39.753Z,3.40
2018-09-18T09:57:21.751Z,4.20
2018-09-18T09:58:21.675Z,4.70
2018-09-18T09:59:21.629Z,4.50
2018-09-18T10:00:21.581Z,4.30
2018-09-18T10:01:21.475Z,4.30
2018-09-18T10:04:03.737Z,3.90
2018-09-18T10:05:03.700Z,4.00
2018-09-18T10:06:03.609Z,3.90
2018-09-18T10:08:45.756Z,4.00
2018-09-18T10:09:45.686Z,3.70
2018-09-18T10:10:45.857Z,4.00
2018-09-18T10:11:45.578Z,4.20
2018-09-18T10:12:45.527Z,4.00
2018-09-18T10:13:45.475Z,4.10
2018-09-18T10:14:45.383Z,4.30
2018-09-18T10:15:45.352Z,4.30
2018-09-18T10:16:45.234Z,4.00
2018-09-18T10:17:45.249Z,3.90
2018-09-18T10:18:45.097Z,4.40
2018-09-18T10:19:45.074Z,4.10
2018-09-18T10:20:44.997Z,4.50
2018-09-18T10:21:44.902Z,4.30
2018-09-18T10:22:44.830Z,4.20
2018-09-18T10:25:26.785Z,4.30
2018-09-18T10:26:26.740Z,4.30
2018-09-18T10:27:26.630Z,4.30
2018-09-18T10:28:26.574Z,4.60
2018-09-18T10:29:26.486Z,4.20
2018-09-18T10:30:26.472Z,4.20
2018-09-18T10:31:26.376Z,4.00
2018-09-18T10:34:08.260Z,4.00
2018-09-18T10:35:08.198Z,4.20
2018-09-18T10:36:08.186Z,4.20
2018-09-18T10:37:08.060Z,4.40
2018-09-18T10:38:07.998Z,4.20
2018-09-18T10:39:07.952Z,3.80
2018-09-18T10:40:07.886Z,3.90
2018-09-18T10:41:07.898Z,3.90
2018-09-18T10:42:07.793Z,3.70
2018-09-18T10:43:07.679Z,4.00
2018-09-18T10:44:07.669Z,4.10
2018-09-18T10:45:07.560Z,4.10
2018-09-18T10:46:07.470Z,4.10
2018-09-18T10:47:08.460Z,4.10
2018-09-18T10:48:07.346Z,4.20
2018-09-18T10:49:07.310Z,4.10
2018-09-18T10:50:07.214Z,4.30
2018-09-18T10:51:07.157Z,4.20
2018-09-18T10:52:07.134Z,4.30
2018-09-18T10:53:07.041Z,4.10
2018-09-18T10:54:06.983Z,4.00
2018-09-18T10:55:06.901Z,4.30
2018-09-18T10:56:06.849Z,4.30
2018-09-18T10:57:06.833Z,4.80
2018-09-18T10:58:06.712Z,4.70
2018-09-18T10:59:06.640Z,4.30
2018-09-18T11:00:06.590Z,4.40
2018-09-18T11:01:06.522Z,4.70
2018-09-18T11:02:06.547Z,4.10
2018-09-18T11:03:06.387Z,4.20
2018-09-18T11:04:06.339Z,4.40
2018-09-18T11:06:48.273Z,4.40
2018-09-18T11:07:48.417Z,4.30
2018-09-18T11:08:48.166Z,4.40
2018-09-18T11:11:30.313Z,4.60
2018-09-18T11:12:30.305Z,4.60
2018-09-18T11:13:30.195Z,4.20
2018-09-18T11:14:30.094Z,4.40
2018-09-18T11:15:30.129Z,4.20
2018-09-18T11:16:29.982Z,4.10
2018-09-18T11:17:29.914Z,4.50
2018-09-18T11:20:11.839Z,4.60
2018-09-18T11:21:11.763Z,4.20
2018-09-18T11:22:11.731Z,4.20
2018-09-18T11:23:11.611Z,4.10
2018-09-18T11:24:11.642Z,4.30
2018-09-18T11:26:53.770Z,4.40
2018-09-18T11:27:53.765Z,4.70
2018-09-18T11:28:53.654Z,4.10
2018-09-18T11:31:35.791Z,4.70
2018-09-18T11:32:35.917Z,3.90
2018-09-18T11:33:35.680Z,3.70
2018-09-18T11:34:35.629Z,3.80
2018-09-18T11:35:35.529Z,4.40
2018-09-18T11:38:17.797Z,4.50
2018-09-18T11:39:17.716Z,4.30
2018-09-18T11:40:17.649Z,4.00
2018-09-18T11:42:59.777Z,3.90
2018-09-18T11:43:59.737Z,4.00
2018-09-18T11:44:59.663Z,3.60
2018-09-18T11:45:59.779Z,3.60
2018-09-18T11:46:59.526Z,3.20
2018-09-18T11:47:59.465Z,3.30
2018-09-18T11:48:59.421Z,3.50
2018-09-18T11:51:41.287Z,3.50
2018-09-18T11:52:41.262Z,3.30
2018-09-18T11:53:41.191Z,3.70
2018-09-18T11:54:41.100Z,3.40
2018-09-18T11:55:41.024Z,3.40
2018-09-18T11:56:40.992Z,3.40
2018-09-18T11:57:40.901Z,3.30
2018-09-18T11:58:40.845Z,3.30
2018-09-18T11:59:40.798Z,3.30
2018-09-18T12:00:40.715Z,3.20
2018-09-18T12:01:40.643Z,3.00
2018-09-18T12:04:22.847Z,2.80
2018-09-18T12:05:22.741Z,2.90
2018-09-18T12:06:22.661Z,3.40
2018-09-18T12:07:22.596Z,3.10
2018-09-18T12:08:22.536Z,2.80
2018-09-18T12:09:22.478Z,3.30
2018-09-18T12:10:22.414Z,3.40
2018-09-18T12:11:22.337Z,3.20
2018-09-18T12:12:22.282Z,3.10
2018-09-18T12:13:22.192Z,3.30
2018-09-18T12:14:22.155Z,3.20
2018-09-18T12:15:22.070Z,3.00
2018-09-18T12:18:04.303Z,3.00
2018-09-18T12:19:04.243Z,3.00
2018-09-18T12:20:04.165Z,3.40
2018-09-18T12:21:04.090Z,3.40
2018-09-18T12:22:04.064Z,3.20
2018-09-18T12:23:03.953Z,2.90
2018-09-18T12:24:03.880Z,3.30
2018-09-18T12:25:04.849Z,3.10
2018-09-18T12:26:03.733Z,3.40
2018-09-18T12:28:45.869Z,3.30
2018-09-18T12:29:45.744Z,3.00
2018-09-18T12:30:45.682Z,3.00
2018-09-18T12:31:45.605Z,3.10
2018-09-18T12:32:45.527Z,3.40
2018-09-18T12:33:45.466Z,3.60
2018-09-18T12:34:45.388Z,3.40
2018-09-18T12:35:45.437Z,3.40
2018-09-18T12:36:45.232Z,3.30
2018-09-18T12:39:27.321Z,3.10
2018-09-18T12:40:27.260Z,3.10
2018-09-18T12:41:27.202Z,3.20
2018-09-18T12:42:27.178Z,3.10
2018-09-18T12:43:27.018Z,3.70
2018-09-18T12:44:26.979Z,3.40
2018-09-18T12:45:26.936Z,3.10
2018-09-18T12:46:26.821Z,3.20
2018-09-18T12:47:26.744Z,3.00
2018-09-18T12:48:26.671Z,3.20
2018-09-18T12:49:26.712Z,2.90
2018-09-18T12:50:26.676Z,2.90
2018-09-18T12:51:26.562Z,2.80
2018-09-18T12:52:26.399Z,2.70
2018-09-18T12:53:26.321Z,2.50
2018-09-18T12:54:26.308Z,2.50
2018-09-18T12:55:26.174Z,2.60
2018-09-18T12:56:26.123Z,2.70
2018-09-18T12:57:26.127Z,2.40
2018-09-18T13:00:08.369Z,2.70
2018-09-18T13:01:08.262Z,2.60
2018-09-18T13:02:08.213Z,2.80
2018-09-18T13:03:08.102Z,2.70
2018-09-18T13:04:08.031Z,2.60
2018-09-18T13:06:50.395Z,2.80
2018-09-18T13:09:32.314Z,2.70
2018-09-18T13:10:32.266Z,2.80
2018-09-18T13:11:32.248Z,2.50
2018-09-18T13:14:14.446Z,2.60
2018-09-18T13:15:14.292Z,2.90
2018-09-18T13:16:14.195Z,2.70
2018-09-18T13:17:14.135Z,2.90
2018-09-18T13:18:14.081Z,2.60
2018-09-18T13:19:13.989Z,3.10
2018-09-18T13:20:13.885Z,2.70
2018-09-18T13:21:14.851Z,2.80
2018-09-18T13:22:13.776Z,2.80
2018-09-18T13:23:13.675Z,3.00
2018-09-18T13:24:13.602Z,2.50
2018-09-18T13:25:13.543Z,3.20
2018-09-18T13:26:13.491Z,3.20
2018-09-18T13:27:13.394Z,3.60
2018-09-18T13:28:13.320Z,3.10
2018-09-18T13:29:13.252Z,2.90
2018-09-18T13:30:13.178Z,3.20
2018-09-18T13:31:14.134Z,3.10
2018-09-18T13:32:13.075Z,3.30
2018-09-18T13:33:12.982Z,2.80
2018-09-18T13:34:12.894Z,2.90
2018-09-18T13:35:12.822Z,3.00
2018-09-18T13:36:12.764Z,2.90
2018-09-18T13:37:12.706Z,3.10
2018-09-18T13:38:12.641Z,2.90
2018-09-18T13:39:12.567Z,3.10
2018-09-18T13:40:12.480Z,2.90
2018-09-18T13:41:13.496Z,3.50
2018-09-18T13:42:12.339Z,3.30
2018-09-18T13:43:12.259Z,3.70
2018-09-18T13:44:12.187Z,3.20
2018-09-18T13:45:12.114Z,2.70
2018-09-18T13:46:12.059Z,3.00
2018-09-18T13:47:12.011Z,2.80
2018-09-18T13:48:11.893Z,2.70
2018-09-18T13:50:53.836Z,2.80
2018-09-18T13:51:53.839Z,2.70
2018-09-18T13:52:53.720Z,2.60
2018-09-18T13:53:53.623Z,2.90
2018-09-18T13:54:53.550Z,2.70
2018-09-18T13:55:53.487Z,2.60
2018-09-18T13:56:53.462Z,2.50
2018-09-18T13:57:53.460Z,2.60
2018-09-18T13:58:53.266Z,2.70
2018-09-18T13:59:53.214Z,2.70
2018-09-18T14:00:53.204Z,2.80
2018-09-18T14:01:53.138Z,2.90
2018-09-18T14:02:53.000Z,3.00
2018-09-18T14:03:53.044Z,2.80
2018-09-18T14:04:52.905Z,2.60
2018-09-18T14:05:52.778Z,2.60
2018-09-18T14:06:52.806Z,2.80
2018-09-18T14:07:52.656Z,2.80
2018-09-18T14:08:52.601Z,2.60
2018-09-18T14:11:34.859Z,2.60
2018-09-18T14:12:34.802Z,4.40
2018-09-18T14:13:34.722Z,2.70
2018-09-18T14:16:16.845Z,3.00
2018-09-18T14:18:58.957Z,3.20
2018-09-18T14:19:58.783Z,2.70
2018-09-18T14:20:58.790Z,2.70
2018-09-18T14:21:59.459Z,2.90
2018-09-18T14:22:58.594Z,2.60
2018-09-18T14:23:58.523Z,2.60
2018-09-18T14:24:58.424Z,2.80
2018-09-18T14:25:58.345Z,2.80
2018-09-18T14:26:58.291Z,2.70
2018-09-18T14:27:58.205Z,2.40
2018-09-18T14:28:58.223Z,2.60
2018-09-18T14:29:58.051Z,2.20
2018-09-18T14:30:58.003Z,2.70
2018-09-18T14:31:57.915Z,2.80
2018-09-18T14:32:57.883Z,2.60
2018-09-18T14:33:57.790Z,2.50
2018-09-18T14:34:57.823Z,2.80
2018-09-18T14:35:57.623Z,3.20
2018-09-18T14:36:57.560Z,2.70
2018-09-18T14:37:57.539Z,2.80
2018-09-18T14:38:57.450Z,2.50
2018-09-18T14:39:57.350Z,2.20
2018-09-18T14:40:57.280Z,2.50
2018-09-18T14:41:57.208Z,2.60
2018-09-18T14:44:39.471Z,2.70
2018-09-18T14:47:21.346Z,2.60
2018-09-18T14:50:03.373Z,2.60
2018-09-18T14:52:45.376Z,2.40
2018-09-18T14:55:27.382Z,2.50
2018-09-18T14:58:09.372Z,2.70
2018-09-18T14:59:09.309Z,2.70
2018-09-18T15:00:09.285Z,2.90
2018-09-18T15:01:10.174Z,2.70
2018-09-18T15:02:09.080Z,2.80
2018-09-18T15:03:09.022Z,2.60
2018-09-18T15:04:08.979Z,2.30
2018-09-18T15:05:08.871Z,3.10
2018-09-18T15:06:08.817Z,2.50
2018-09-18T15:07:08.747Z,2.40
2018-09-18T15:08:08.666Z,2.20
2018-09-18T15:09:08.606Z,2.30
2018-09-18T15:10:08.506Z,2.60
2018-09-18T15:11:08.467Z,2.10
2018-09-18T15:12:08.399Z,2.10
2018-09-18T15:13:08.290Z,2.10
2018-09-18T15:14:08.230Z,2.30
2018-09-18T15:15:08.152Z,2.40
2018-09-18T15:16:08.093Z,2.10
2018-09-18T15:17:08.051Z,2.40
2018-09-18T15:18:07.939Z,2.50
2018-09-18T15:20:49.881Z,2.20
2018-09-18T15:21:49.837Z,2.20
2018-09-18T15:22:49.748Z,2.00
2018-09-18T15:23:49.659Z,2.00
2018-09-18T15:24:49.592Z,2.10
2018-09-18T15:27:31.921Z,2.70
2018-09-18T15:28:31.800Z,2.40
2018-09-18T15:29:31.744Z,2.30
2018-09-18T15:30:32.683Z,2.40
2018-09-18T15:31:31.590Z,2.30
2018-09-18T15:32:32.534Z,2.80
2018-09-18T15:33:31.510Z,2.90
2018-09-18T15:34:31.385Z,2.90
2018-09-18T15:35:31.294Z,2.60
2018-09-18T15:36:31.261Z,2.60